Cresthill, Illinois
Current Conditions -  °F | °C
As of 11:55 AM on Friday 21 Nov 2014 (Local Time) from KLOT Reporting Station
Clear Clear  
Wind Chill: 20°   Ceiling: Unl
Heat Index: 30°   Visibility: 10mi
Dew Point:   Wind: 14mph
Humidity: 29%   Direction: 180°S
Pressure: 30.42"   Gusts: NA
Location:  41.6°N, 88.12°W
Report Text: KLOT 211755Z AUTO 18012KT 10SM CLR M01/M17 A3042 RMK AO2 T10101171 11010 21135
Loading
Personal Weather Stations






























Interactive Weather Map New forecast layout! Learn more

10-Day Weather Forecast

Advertisements
Track Severe Weather on mobile